createdAt,value
2023-02-27T18:14:34.857Z,3.10
2023-02-27T18:17:02.724Z,3.45
2023-02-27T18:19:32.460Z,3.45
2023-02-27T18:22:00.571Z,3.03
2023-02-27T18:24:28.463Z,2.53
2023-02-27T18:26:56.327Z,2.65
2023-02-27T18:29:24.213Z,2.70
2023-02-27T18:31:54.745Z,2.20
2023-02-27T18:34:23.297Z,2.05
2023-02-27T18:36:52.144Z,2.28
2023-02-27T18:39:20.151Z,2.70
2023-02-27T18:41:48.278Z,2.13
2023-02-27T18:44:16.176Z,2.72
2023-02-27T18:46:44.309Z,3.85
2023-02-27T18:49:14.885Z,3.47
2023-02-27T18:51:45.104Z,3.67
2023-02-27T18:54:13.785Z,4.88
2023-02-27T18:56:41.759Z,5.88
2023-02-27T18:59:11.891Z,4.20
2023-02-27T19:01:40.129Z,6.05
2023-02-27T19:04:09.477Z,5.82
2023-02-27T19:06:42.011Z,7.20
2023-02-27T19:09:12.340Z,7.78
2023-02-27T19:11:40.352Z,8.07
2023-02-27T19:14:11.684Z,7.10
2023-02-27T19:16:39.706Z,7.82
2023-02-27T19:19:09.734Z,7.70
2023-02-27T19:21:39.635Z,7.82
2023-02-27T19:24:08.858Z,8.10
2023-02-27T19:26:36.741Z,8.85
2023-02-27T19:29:07.143Z,10.77
2023-02-27T19:31:35.338Z,9.82
2023-02-27T19:34:03.334Z,8.98
2023-02-27T19:36:31.630Z,9.85
2023-02-27T19:39:01.308Z,10.25
2023-02-27T19:41:31.807Z,11.32
2023-02-27T19:44:00.991Z,10.18
2023-02-27T19:46:31.482Z,11.50
2023-02-27T19:49:01.400Z,9.95
2023-02-27T19:51:30.036Z,12.00
2023-02-27T19:53:57.953Z,12.07
2023-02-27T19:56:29.102Z,13.88
2023-02-27T19:58:57.707Z,13.32
2023-02-27T20:01:27.985Z,13.52
2023-02-27T20:03:56.832Z,13.52
2023-02-27T20:06:27.012Z,12.73
2023-02-27T20:08:56.013Z,13.00
2023-02-27T20:11:24.103Z,13.77
2023-02-27T20:13:53.412Z,13.07
2023-02-27T20:16:23.887Z,13.45
2023-02-27T20:18:51.975Z,14.07
2023-02-27T20:21:21.761Z,14.07
2023-02-27T20:23:50.661Z,12.93
2023-02-27T20:26:22.370Z,13.38
2023-02-27T20:28:52.079Z,13.00
2023-02-27T20:31:25.716Z,13.38
2023-02-27T20:33:53.813Z,15.73
2023-02-27T20:36:22.108Z,14.73
2023-02-27T20:38:50.315Z,15.55
2023-02-27T20:41:20.959Z,15.75
2023-02-27T20:43:49.380Z,15.07
2023-02-27T20:46:20.478Z,15.63
2023-02-27T20:48:50.629Z,15.15
2023-02-27T20:51:20.825Z,16.23
2023-02-27T20:53:50.739Z,17.10
2023-02-27T20:56:20.843Z,16.13
2023-02-27T20:58:49.257Z,21.13
2023-02-27T21:01:18.752Z,19.25
2023-02-27T21:03:48.081Z,20.35
2023-02-27T21:06:18.088Z,18.40
2023-02-27T21:08:48.275Z,19.73
2023-02-27T21:11:18.143Z,20.13
2023-02-27T21:13:47.162Z,20.20
2023-02-27T21:16:16.947Z,24.02
2023-02-27T21:18:45.962Z,23.88
2023-02-27T21:21:18.436Z,22.92
2023-02-27T21:23:46.402Z,22.13
2023-02-27T21:26:18.097Z,22.15
2023-02-27T21:28:50.033Z,20.98
2023-02-27T21:31:19.816Z,23.80
2023-02-27T21:33:48.223Z,20.42
2023-02-27T21:36:18.073Z,23.52
2023-02-27T21:38:46.595Z,23.27
2023-02-27T21:41:14.721Z,23.13
2023-02-27T21:43:43.099Z,22.10
2023-02-27T21:46:13.072Z,23.45
2023-02-27T21:48:41.317Z,23.60
2023-02-27T21:51:09.188Z,23.90
2023-02-27T21:53:38.554Z,20.15
2023-02-27T21:56:08.180Z,22.30
2023-02-27T21:58:36.490Z,22.42
2023-02-27T22:01:15.034Z,21.83
2023-02-27T22:03:43.363Z,23.65
2023-02-27T22:06:12.022Z,23.05
2023-02-27T22:08:42.224Z,26.52
2023-02-27T22:11:10.516Z,26.17
2023-02-27T22:13:38.643Z,25.63
2023-02-27T22:16:07.835Z,25.45
2023-02-27T22:18:36.595Z,27.77
2023-02-27T22:21:07.725Z,27.08
2023-02-27T22:23:36.545Z,24.35
2023-02-27T22:26:07.207Z,27.35
2023-02-27T22:28:35.560Z,26.17
2023-02-27T22:31:11.062Z,26.70
2023-02-27T22:33:39.953Z,26.85
2023-02-27T22:36:09.690Z,26.55
2023-02-27T22:38:37.649Z,26.50
2023-02-27T22:41:09.572Z,26.20
2023-02-27T22:43:39.619Z,28.88
2023-02-27T22:46:07.766Z,28.85
2023-02-27T22:48:36.295Z,26.67
2023-02-27T22:51:07.006Z,27.50
2023-02-27T22:53:38.302Z,27.55
2023-02-27T22:56:09.912Z,27.92
2023-02-27T22:58:39.019Z,28.13
2023-02-27T23:01:10.834Z,27.80
